Time;durP1;ratioP1;P1;durP2;ratioP2;P2;SDS_P1;SDS_P2;PMS_P1;PMS_P2;Temp;Humidity;BMP_temperature;BMP_pressure;BME280_temperature;BME280_humidity;BME280_pressure;Samples;Min_cycle;Max_cycle;Signal;HPM_P1;HPM_P2
2023/09/04 00:02:25;;;;;;;14.57;13.27;;;10.40;99.90;;;;;;5029236;28;20064;-80
2023/09/04 00:04:52;;;;;;;14.23;12.82;;;10.50;99.90;;;;;;5053498;28;20054;-80
2023/09/04 00:07:19;;;;;;;14.50;12.90;;;10.50;99.90;;;;;;5062998;28;20048;-80
2023/09/04 00:09:46;;;;;;;13.60;12.25;;;10.70;99.90;;;;;;5057337;28;20056;-80
2023/09/04 00:12:12;;;;;;;12.85;11.75;;;10.70;99.90;;;;;;5029141;28;20040;-80
2023/09/04 00:14:39;;;;;;;13.63;11.73;;;10.70;99.90;;;;;;5040580;28;20051;-80
2023/09/04 00:17:07;;;;;;;16.42;12.50;;;10.70;99.90;;;;;;5040291;28;20049;-80
2023/09/04 00:19:34;;;;;;;15.20;12.25;;;10.60;99.90;;;;;;5056043;28;20575;-81
2023/09/04 00:22:01;;;;;;;13.80;12.27;;;10.60;99.90;;;;;;5046086;28;20033;-80
2023/09/04 00:24:28;;;;;;;17.90;12.15;;;10.60;99.90;;;;;;5044065;28;20053;-80
2023/09/04 00:26:55;;;;;;;13.20;11.90;;;10.50;99.90;;;;;;5075501;28;20048;-80
2023/09/04 00:29:22;;;;;;;13.13;11.82;;;10.40;99.90;;;;;;5051253;28;20126;-80
2023/09/04 00:31:49;;;;;;;15.13;12.18;;;10.40;99.90;;;;;;5080246;28;20156;-80
2023/09/04 00:34:16;;;;;;;17.55;12.48;;;10.40;99.90;;;;;;5060748;28;20040;-79
2023/09/04 00:36:42;;;;;;;14.20;12.15;;;10.40;99.90;;;;;;5052131;28;20048;-81
2023/09/04 00:39:09;;;;;;;13.98;12.57;;;10.40;99.90;;;;;;5063861;28;20053;-79
2023/09/04 00:41:36;;;;;;;13.52;11.38;;;10.20;99.90;;;;;;5052408;28;20055;-81
2023/09/04 00:44:06;;;;;;;12.43;11.43;;;10.10;99.90;;;;;;5047685;28;20049;-79
2023/09/04 00:46:33;;;;;;;13.60;12.20;;;10.10;99.90;;;;;;5074416;28;20048;-79
2023/09/04 00:48:59;;;;;;;15.07;12.60;;;10.10;99.90;;;;;;5082166;28;20028;-79
2023/09/04 00:51:27;;;;;;;13.43;12.15;;;10.00;99.90;;;;;;5080966;28;20032;-78
2023/09/04 00:53:54;;;;;;;14.05;12.88;;;10.10;99.90;;;;;;5053922;28;20059;-80
2023/09/04 00:56:24;;;;;;;15.30;13.57;;;10.10;99.90;;;;;;5058843;28;20519;-78
2023/09/04 00:58:52;;;;;;;15.38;14.00;;;10.20;99.90;;;;;;5033847;28;20507;-78
2023/09/04 01:01:19;;;;;;;14.93;13.43;;;10.00;99.90;;;;;;5042813;28;20650;-78
2023/09/04 01:03:46;;;;;;;17.95;14.07;;;10.00;99.90;;;;;;5022999;28;20082;-79
2023/09/04 01:06:14;;;;;;;16.63;14.25;;;10.10;99.90;;;;;;5042997;28;20037;-78
2023/09/04 01:08:40;;;;;;;15.68;14.18;;;10.00;99.90;;;;;;5029190;28;20078;-79
2023/09/04 01:11:21;;;;;;;16.60;14.77;;;9.90;99.90;;;;;;5039062;28;20036;-79
2023/09/04 01:13:54;;;;;;;16.90;15.00;;;10.00;99.90;;;;;;5041683;28;20051;-78
2023/09/04 01:16:22;;;;;;;18.30;15.50;;;10.20;99.90;;;;;;5058472;28;20048;-78
2023/09/04 01:18:50;;;;;;;16.55;14.77;;;10.20;99.90;;;;;;5060562;28;20059;-78
2023/09/04 01:21:17;;;;;;;22.33;16.90;;;10.20;99.90;;;;;;5061318;28;20041;-79
2023/09/04 01:23:44;;;;;;;23.45;16.73;;;10.30;99.90;;;;;;5024462;28;20049;-79
2023/09/04 01:26:13;;;;;;;21.52;15.73;;;10.30;99.90;;;;;;5023409;28;20071;-79
2023/09/04 01:28:40;;;;;;;25.65;17.80;;;10.10;99.90;;;;;;5064516;28;20758;-78
2023/09/04 01:31:26;;;;;;;21.55;17.45;;;10.10;99.90;;;;;;5070428;28;20625;-79
2023/09/04 01:34:08;;;;;;;21.75;16.83;;;9.90;99.90;;;;;;5048794;28;20036;-78
2023/09/04 01:36:36;;;;;;;20.23;17.50;;;9.90;99.90;;;;;;5045358;28;20052;-79
2023/09/04 01:39:04;;;;;;;23.80;19.00;;;10.00;99.90;;;;;;5055965;28;20620;-78
2023/09/04 01:41:30;;;;;;;24.60;18.90;;;10.10;99.90;;;;;;5063536;28;20041;-80
2023/09/04 01:43:57;;;;;;;25.90;19.38;;;10.20;99.90;;;;;;5037051;28;20059;-78
2023/09/04 01:46:24;;;;;;;25.80;18.67;;;10.10;99.90;;;;;;5068089;28;20040;-79
2023/09/04 01:48:52;;;;;;;23.27;18.80;;;10.10;99.90;;;;;;5066014;28;20045;-79
2023/09/04 01:51:18;;;;;;;23.35;18.05;;;10.00;99.90;;;;;;5060103;28;20503;-78
2023/09/04 01:53:45;;;;;;;23.83;18.23;;;9.90;99.90;;;;;;5066555;28;20044;-80
2023/09/04 01:56:12;;;;;;;20.58;18.38;;;9.90;99.90;;;;;;5025656;28;20090;-78
2023/09/04 01:58:39;;;;;;;22.60;19.13;;;9.90;99.90;;;;;;5034319;28;20052;-78
2023/09/04 02:01:06;;;;;;;27.02;20.30;;;10.10;99.90;;;;;;5043030;28;20048;-80
2023/09/04 02:03:33;;;;;;;21.92;18.58;;;9.90;99.90;;;;;;5043901;28;20104;-78
2023/09/04 02:06:00;;;;;;;22.17;18.58;;;9.90;99.90;;;;;;5050082;28;20049;-81
2023/09/04 02:08:30;;;;;;;25.85;20.98;;;9.80;99.90;;;;;;5040769;28;20040;-77
2023/09/04 02:10:58;;;;;;;24.30;20.98;;;9.90;99.90;;;;;;5036779;28;20066;-78
2023/09/04 02:13:24;;;;;;;23.75;19.58;;;9.90;99.90;;;;;;5048378;28;20053;-78
2023/09/04 02:15:53;;;;;;;26.73;21.25;;;9.90;99.90;;;;;;5070564;28;20048;-78
2023/09/04 02:18:20;;;;;;;28.75;22.92;;;9.80;99.90;;;;;;5053801;28;20052;-77
2023/09/04 02:20:48;;;;;;;31.73;22.58;;;10.10;99.90;;;;;;5057798;28;20438;-78
2023/09/04 02:23:15;;;;;;;32.38;23.90;;;10.40;99.90;;;;;;5021763;28;20102;-78
2023/09/04 02:25:41;;;;;;;32.75;23.77;;;10.50;99.90;;;;;;5052017;28;20040;-81
2023/09/04 02:28:08;;;;;;;32.25;23.73;;;10.40;99.90;;;;;;5042976;28;20055;-80
2023/09/04 02:30:37;;;;;;;29.02;24.02;;;10.40;99.90;;;;;;5032712;28;20109;-78
2023/09/04 02:33:07;;;;;;;28.15;23.08;;;10.40;99.90;;;;;;5040233;28;20044;-81
2023/09/04 02:35:36;;;;;;;33.67;24.33;;;10.40;99.90;;;;;;5062287;28;20538;-78
2023/09/04 02:38:03;;;;;;;34.28;23.27;;;10.30;99.90;;;;;;5069114;28;20048;-77
2023/09/04 02:40:30;;;;;;;36.50;24.70;;;10.40;99.90;;;;;;5038937;28;20049;-78
2023/09/04 02:42:57;;;;;;;37.22;23.45;;;10.40;99.90;;;;;;5047392;28;20651;-80
2023/09/04 02:45:24;;;;;;;33.15;23.60;;;10.40;99.90;;;;;;5040537;28;20056;-79
2023/09/04 02:47:54;;;;;;;31.95;24.25;;;10.40;99.90;;;;;;5048218;28;20073;-78
2023/09/04 02:50:23;;;;;;;31.75;23.75;;;10.40;99.90;;;;;;5048553;28;20052;-80
2023/09/04 02:52:49;;;;;;;36.25;25.70;;;10.20;99.90;;;;;;5049297;28;20045;-79
2023/09/04 02:55:16;;;;;;;29.38;23.13;;;10.10;99.90;;;;;;5014665;28;20060;-79
2023/09/04 02:57:43;;;;;;;35.85;25.42;;;10.10;99.90;;;;;;5062227;28;20056;-79
2023/09/04 03:00:12;;;;;;;40.72;28.02;;;10.10;99.90;;;;;;5052607;28;20036;-80
2023/09/04 03:02:40;;;;;;;39.58;28.05;;;10.00;99.90;;;;;;5051792;28;20044;-79
2023/09/04 03:05:10;;;;;;;43.10;28.95;;;10.10;99.90;;;;;;5045092;28;20055;-79
2023/09/04 03:07:40;;;;;;;51.33;31.38;;;10.10;99.90;;;;;;5031132;28;20071;-79
2023/09/04 03:10:07;;;;;;;48.65;31.83;;;10.20;99.90;;;;;;5035459;28;20051;-80
2023/09/04 03:12:34;;;;;;;42.95;29.25;;;10.30;99.90;;;;;;5045924;28;20036;-79
2023/09/04 03:15:06;;;;;;;45.50;31.50;;;10.30;99.90;;;;;;5048246;28;20055;-80
2023/09/04 03:17:36;;;;;;;27.87;22.57;;;10.20;99.90;;;;;;5062350;28;20044;-79
2023/09/04 03:20:05;;;;;;;30.30;21.48;;;10.00;99.90;;;;;;5030704;28;20032;-80
2023/09/04 03:22:32;;;;;;;27.27;21.27;;;9.80;99.90;;;;;;5037065;28;20059;-79
2023/09/04 03:24:59;;;;;;;32.45;25.13;;;9.80;99.90;;;;;;5046303;28;20415;-78
2023/09/04 03:27:29;;;;;;;41.65;28.50;;;9.80;99.90;;;;;;5035611;28;20041;-79
2023/09/04 03:29:56;;;;;;;46.10;30.65;;;9.80;99.90;;;;;;5051668;28;20041;-78
2023/09/04 03:32:24;;;;;;;47.83;31.23;;;9.80;99.90;;;;;;5038634;28;20048;-79
2023/09/04 03:34:51;;;;;;;47.53;31.77;;;9.80;99.90;;;;;;5047844;28;20798;-79
2023/09/04 03:37:18;;;;;;;45.83;28.65;;;10.00;99.90;;;;;;5022970;28;20271;-79
2023/09/04 03:39:45;;;;;;;38.58;27.00;;;10.10;99.90;;;;;;5043070;28;20048;-79
2023/09/04 03:42:15;;;;;;;27.83;23.58;;;9.90;99.90;;;;;;5038303;28;20246;-80
2023/09/04 03:44:41;;;;;;;29.30;23.35;;;9.80;99.90;;;;;;5038528;28;20124;-79
2023/09/04 03:47:09;;;;;;;24.65;21.23;;;9.60;99.90;;;;;;5056143;28;20044;-79
2023/09/04 03:49:37;;;;;;;26.45;22.42;;;9.60;99.90;;;;;;5056802;28;20045;-77
2023/09/04 03:52:07;;;;;;;28.95;22.83;;;9.50;99.90;;;;;;5047838;28;20039;-80
2023/09/04 03:54:34;;;;;;;23.55;21.15;;;9.40;99.90;;;;;;5053085;28;20052;-77
2023/09/04 03:57:01;;;;;;;24.63;21.63;;;9.30;99.90;;;;;;5056055;28;20529;-79
2023/09/04 03:59:30;;;;;;;31.20;21.65;;;9.20;99.90;;;;;;5060612;28;20068;-80
2023/09/04 04:01:57;;;;;;;23.52;21.33;;;9.10;99.90;;;;;;5048470;28;20644;-79
2023/09/04 04:04:25;;;;;;;23.15;20.90;;;9.00;99.90;;;;;;5056403;28;20419;-80
2023/09/04 04:06:52;;;;;;;23.15;20.95;;;8.90;99.90;;;;;;5066878;28;20044;-79
2023/09/04 04:09:21;;;;;;;24.38;21.98;;;8.90;99.90;;;;;;5040374;28;20041;-79
2023/09/04 04:11:49;;;;;;;28.20;23.20;;;8.90;99.90;;;;;;5040333;28;20051;-79
2023/09/04 04:14:17;;;;;;;26.55;23.85;;;8.90;99.90;;;;;;5038787;28;20049;-80
2023/09/04 04:16:43;;;;;;;28.40;25.40;;;9.00;99.90;;;;;;5039225;28;20044;-78
2023/09/04 04:19:10;;;;;;;27.63;24.20;;;9.20;99.90;;;;;;5037049;28;20059;-77
2023/09/04 04:21:38;;;;;;;34.28;27.33;;;9.30;99.90;;;;;;5043244;28;20055;-78
2023/09/04 04:24:05;;;;;;;36.03;27.20;;;9.40;99.90;;;;;;5039070;28;20074;-78
2023/09/04 04:26:31;;;;;;;35.38;28.70;;;9.40;99.90;;;;;;5043411;28;21224;-78
2023/09/04 04:28:58;;;;;;;42.75;29.05;;;9.50;99.90;;;;;;5043945;28;20041;-77
2023/09/04 04:31:25;;;;;;;39.90;28.63;;;9.60;99.90;;;;;;5059485;28;20052;-78
2023/09/04 04:33:52;;;;;;;43.35;28.52;;;9.70;99.90;;;;;;5026847;28;20032;-80
2023/09/04 04:36:22;;;;;;;43.72;30.35;;;9.70;99.90;;;;;;5044817;28;20135;-78
2023/09/04 04:38:50;;;;;;;43.92;29.77;;;9.90;99.90;;;;;;5029078;28;20060;-78
2023/09/04 04:41:17;;;;;;;43.50;29.80;;;9.80;99.90;;;;;;5038821;28;20044;-77
2023/09/04 04:43:43;;;;;;;42.20;29.17;;;9.80;99.90;;;;;;5063741;28;20044;-77
2023/09/04 04:46:24;;;;;;;41.83;27.77;;;9.80;99.90;;;;;;5031842;28;20688;-79
2023/09/04 04:48:52;;;;;;;42.38;28.75;;;9.80;99.90;;;;;;5053806;28;20470;-77
2023/09/04 04:51:19;;;;;;;39.10;28.23;;;9.80;99.90;;;;;;5024887;28;20048;-78
2023/09/04 04:53:45;;;;;;;40.78;29.17;;;10.00;99.90;;;;;;5045159;28;20044;-78
2023/09/04 04:56:12;;;;;;;45.30;29.88;;;10.30;99.90;;;;;;5051269;28;20055;-78
2023/09/04 04:58:43;;;;;;;50.35;30.27;;;10.50;99.90;;;;;;5036900;28;21183;-78
2023/09/04 05:01:09;;;;;;;50.10;31.35;;;11.00;99.90;;;;;;5062188;28;20051;-78
2023/09/04 05:03:37;;;;;;;46.08;30.65;;;11.30;99.90;;;;;;5040982;28;20562;-78
2023/09/04 05:06:09;;;;;;;50.58;31.45;;;11.60;99.90;;;;;;5048016;28;20044;-79
2023/09/04 05:08:39;;;;;;;49.33;32.85;;;11.80;99.90;;;;;;5033372;28;20637;-78
2023/09/04 05:11:12;;;;;;;46.28;32.17;;;11.90;99.90;;;;;;5057555;28;20047;-78
2023/09/04 05:13:41;;;;;;;43.63;31.83;;;12.10;99.90;;;;;;5042317;28;20044;-79
2023/09/04 05:16:08;;;;;;;46.53;32.75;;;12.10;99.90;;;;;;5038320;28;20071;-78
2023/09/04 05:18:36;;;;;;;43.45;33.58;;;12.20;99.90;;;;;;5035269;28;20056;-78
2023/09/04 05:21:05;;;;;;;43.67;28.90;;;12.20;99.90;;;;;;5036479;28;20048;-78
2023/09/04 05:23:35;;;;;;;34.53;28.27;;;12.20;99.90;;;;;;5033184;28;20106;-77
2023/09/04 05:26:03;;;;;;;39.53;27.83;;;12.20;99.90;;;;;;5064663;28;20036;-77
2023/09/04 05:28:29;;;;;;;36.35;27.77;;;12.20;99.90;;;;;;5074982;28;20045;-77
2023/09/04 05:31:05;;;;;;;34.83;27.58;;;12.20;99.90;;;;;;5069029;28;20037;-78
2023/09/04 05:33:32;;;;;;;34.38;27.17;;;12.30;99.90;;;;;;5047012;28;20056;-78
2023/09/04 05:35:58;;;;;;;31.63;26.13;;;12.20;99.90;;;;;;5051507;28;20040;-77
2023/09/04 05:38:28;;;;;;;35.60;27.77;;;12.20;99.90;;;;;;5043359;28;20051;-79
2023/09/04 05:41:05;;;;;;;40.63;28.10;;;12.10;99.90;;;;;;5058984;28;20602;-78
2023/09/04 05:43:32;;;;;;;40.25;27.80;;;12.10;99.90;;;;;;5041877;28;20095;-77
2023/09/04 05:45:59;;;;;;;34.45;26.70;;;12.20;99.90;;;;;;5058686;28;20053;-78
2023/09/04 05:48:26;;;;;;;31.80;26.40;;;12.20;99.90;;;;;;5061360;28;20052;-78
2023/09/04 05:50:53;;;;;;;32.13;25.33;;;12.20;99.90;;;;;;5033894;28;20106;-78
2023/09/04 05:53:24;;;;;;;30.98;24.63;;;12.20;99.90;;;;;;5056049;28;20674;-77
2023/09/04 05:56:15;;;;;;;33.45;24.52;;;12.20;99.90;;;;;;5039882;28;20080;-78
2023/09/04 05:58:50;;;;;;;30.33;25.33;;;12.40;99.90;;;;;;5055869;28;20150;-77
2023/09/04 06:01:19;;;;;;;30.75;24.55;;;12.40;99.90;;;;;;5036645;28;20065;-77
2023/09/04 06:03:46;;;;;;;27.20;23.48;;;12.40;99.90;;;;;;5058063;28;20040;-77
2023/09/04 06:06:14;;;;;;;28.52;23.13;;;12.50;99.90;;;;;;5054156;28;20474;-78
2023/09/04 06:08:41;;;;;;;23.80;21.40;;;12.50;99.90;;;;;;5032531;28;20048;-76
2023/09/04 06:11:08;;;;;;;21.92;19.52;;;12.70;99.90;;;;;;5022246;28;20057;-77
2023/09/04 06:13:35;;;;;;;20.40;18.02;;;12.80;99.90;;;;;;5048833;28;20122;-78
2023/09/04 06:16:03;;;;;;;19.58;16.80;;;12.80;99.90;;;;;;5037255;28;20542;-79
2023/09/04 06:18:34;;;;;;;16.85;15.23;;;12.90;99.90;;;;;;5046518;28;20041;-76
2023/09/04 06:21:01;;;;;;;19.20;14.93;;;13.00;99.90;;;;;;5054112;28;21000;-76
2023/09/04 06:23:28;;;;;;;17.25;14.20;;;13.10;99.90;;;;;;5031492;28;20040;-79
2023/09/04 06:25:55;;;;;;;13.95;12.55;;;13.10;99.90;;;;;;5055918;28;20044;-77
2023/09/04 06:28:26;;;;;;;18.38;13.15;;;13.10;99.90;;;;;;5025178;28;20037;-78
2023/09/04 06:30:54;;;;;;;14.23;12.73;;;13.20;99.90;;;;;;5054603;28;20056;-79
2023/09/04 06:33:21;;;;;;;11.27;10.23;;;13.30;99.90;;;;;;5058414;28;20059;-77
2023/09/04 06:35:49;;;;;;;11.02;9.93;;;13.40;99.90;;;;;;5041244;28;20045;-79
2023/09/04 06:38:16;;;;;;;9.82;8.93;;;13.40;99.90;;;;;;5054451;28;20045;-79
2023/09/04 06:40:46;;;;;;;11.02;9.90;;;13.50;99.90;;;;;;5032572;28;20049;-78
2023/09/04 06:43:13;;;;;;;9.70;8.80;;;13.60;99.90;;;;;;5052209;28;20066;-78
2023/09/04 06:45:39;;;;;;;10.85;9.73;;;13.70;99.90;;;;;;5053708;28;20074;-78
2023/09/04 06:48:06;;;;;;;10.68;9.77;;;13.80;99.90;;;;;;5054598;28;20053;-78
2023/09/04 06:50:33;;;;;;;11.05;10.15;;;13.90;99.90;;;;;;5058186;28;20460;-78
2023/09/04 06:53:00;;;;;;;10.20;9.40;;;14.00;99.90;;;;;;5046856;28;20101;-78
2023/09/04 06:55:30;;;;;;;9.57;8.90;;;14.10;99.90;;;;;;5039515;28;20040;-78
2023/09/04 06:57:57;;;;;;;11.52;10.55;;;14.10;99.90;;;;;;5045561;28;20192;-78
2023/09/04 07:00:24;;;;;;;12.60;11.40;;;14.30;99.90;;;;;;5056470;28;20056;-78
2023/09/04 07:02:51;;;;;;;12.95;12.05;;;14.40;99.90;;;;;;5039638;28;20048;-79
2023/09/04 07:05:25;;;;;;;13.07;12.10;;;14.50;99.90;;;;;;5045316;28;20051;-79
2023/09/04 07:07:52;;;;;;;13.93;12.93;;;14.60;99.90;;;;;;5042606;28;20032;-78
2023/09/04 07:10:19;;;;;;;13.93;13.13;;;14.80;99.90;;;;;;5046283;28;20037;-79
2023/09/04 07:12:46;;;;;;;16.23;15.20;;;15.10;99.90;;;;;;5053124;28;20044;-78
2023/09/04 07:15:33;;;;;;;16.67;15.65;;;15.20;99.90;;;;;;5054408;28;20108;-80
2023/09/04 07:18:00;;;;;;;18.55;17.30;;;15.40;99.90;;;;;;5057568;28;20031;-81
2023/09/04 07:20:27;;;;;;;19.60;18.50;;;15.60;99.90;;;;;;5044298;28;20036;-80
2023/09/04 07:22:55;;;;;;;18.20;17.20;;;15.80;99.90;;;;;;5062381;28;20507;-79
2023/09/04 07:25:40;;;;;;;18.63;17.60;;;16.00;99.90;;;;;;5045197;28;20109;-79
2023/09/04 07:28:07;;;;;;;19.63;18.52;;;16.10;99.90;;;;;;5041807;28;20040;-80
2023/09/04 07:30:34;;;;;;;20.02;18.83;;;16.40;99.90;;;;;;5052051;28;20153;-80
2023/09/04 07:33:01;;;;;;;19.58;18.42;;;16.50;99.90;;;;;;5041786;28;20147;-79
2023/09/04 07:35:31;;;;;;;19.55;18.38;;;16.70;99.90;;;;;;5040349;28;20132;-79
2023/09/04 07:38:31;;;;;;;19.52;18.23;;;16.80;99.90;;;;;;5063220;28;20045;-81
2023/09/04 07:41:03;;;;;;;19.55;18.35;;;16.80;99.90;;;;;;5059886;28;20051;-79
2023/09/04 07:43:31;;;;;;;19.17;18.00;;;17.00;99.90;;;;;;5054597;28;20154;-79
2023/09/04 07:46:05;;;;;;;20.55;18.95;;;17.50;99.90;;;;;;5049010;28;20041;-81
2023/09/04 07:48:56;;;;;;;20.33;19.23;;;17.70;99.90;;;;;;5046391;28;20045;-80
2023/09/04 07:51:41;;;;;;;20.50;19.30;;;18.20;99.90;;;;;;5041713;28;20069;-81
2023/09/04 07:54:08;;;;;;;20.90;19.60;;;18.60;99.90;;;;;;5070455;28;20766;-80
2023/09/04 07:56:38;;;;;;;21.27;20.08;;;18.20;99.90;;;;;;5045515;28;20051;-80
2023/09/04 07:59:09;;;;;;;21.63;20.35;;;18.00;99.90;;;;;;5065379;28;20048;-80
2023/09/04 08:01:39;;;;;;;22.23;20.85;;;18.10;99.90;;;;;;5054943;28;20053;-80
2023/09/04 08:04:06;;;;;;;22.33;20.92;;;18.40;99.90;;;;;;5052829;28;20270;-80
2023/09/04 08:06:33;;;;;;;22.95;21.55;;;18.60;99.90;;;;;;5061387;28;20056;-80
2023/09/04 08:08:59;;;;;;;22.20;21.00;;;18.80;99.90;;;;;;5067183;28;20062;-79
2023/09/04 08:11:27;;;;;;;22.95;21.65;;;18.90;99.90;;;;;;5056490;28;20053;-80
2023/09/04 08:13:55;;;;;;;23.50;21.77;;;18.90;99.90;;;;;;5034780;28;20112;-80
2023/09/04 08:16:23;;;;;;;23.00;21.65;;;19.00;99.90;;;;;;5040396;28;20687;-79
2023/09/04 08:18:50;;;;;;;22.85;21.55;;;19.30;99.90;;;;;;5060164;28;20051;-79
2023/09/04 08:21:17;;;;;;;24.13;22.50;;;19.40;99.90;;;;;;5056109;28;20145;-80
2023/09/04 08:23:47;;;;;;;23.02;21.63;;;19.50;99.90;;;;;;5044645;28;20135;-81
2023/09/04 08:26:14;;;;;;;22.85;21.45;;;19.30;99.90;;;;;;5067732;28;20075;-81
2023/09/04 08:28:42;;;;;;;24.05;22.45;;;19.60;99.90;;;;;;5053638;28;20041;-81
2023/09/04 08:31:10;;;;;;;24.05;22.55;;;19.50;99.90;;;;;;5059006;28;20047;-80
2023/09/04 08:33:38;;;;;;;24.20;22.65;;;19.40;99.90;;;;;;5062455;28;20048;-80
2023/09/04 08:36:05;;;;;;;24.10;22.70;;;19.30;99.90;;;;;;5075142;28;20120;-83
2023/09/04 08:38:32;;;;;;;24.35;22.95;;;19.40;99.90;;;;;;5063016;28;20059;-81
2023/09/04 08:41:07;;;;;;;24.20;22.70;;;19.50;99.90;;;;;;5049576;28;20036;-81
2023/09/04 08:43:36;;;;;;;24.05;22.65;;;19.70;99.90;;;;;;5062711;28;20028;-81
2023/09/04 08:46:07;;;;;;;24.73;23.17;;;19.50;99.90;;;;;;5066612;28;20079;-79
2023/09/04 08:48:41;;;;;;;24.27;22.77;;;19.50;99.90;;;;;;5062514;28;20075;-80
2023/09/04 08:51:09;;;;;;;24.67;23.17;;;19.60;99.90;;;;;;5051465;28;20064;-81
2023/09/04 08:53:36;;;;;;;25.48;23.85;;;19.60;99.90;;;;;;5044367;28;20191;-78
2023/09/04 08:59:27;;;;;;;25.10;23.60;;;19.70;99.90;;;;;;5055789;28;20052;-80
2023/09/04 09:02:02;;;;;;;24.40;22.90;;;19.70;99.90;;;;;;5056685;28;20048;-78
2023/09/04 09:04:43;;;;;;;24.13;22.48;;;19.80;99.90;;;;;;5065505;28;20079;-79
2023/09/04 09:07:12;;;;;;;25.45;23.60;;;20.30;99.90;;;;;;5052367;28;20055;-80
2023/09/04 09:09:50;;;;;;;25.30;23.58;;;20.00;99.90;;;;;;5060161;28;20048;-78
2023/09/04 09:12:18;;;;;;;25.02;23.38;;;19.80;99.90;;;;;;5051010;28;20052;-78
2023/09/04 09:14:44;;;;;;;24.05;22.45;;;20.10;99.90;;;;;;5056732;28;20045;-79
2023/09/04 09:17:14;;;;;;;24.50;23.08;;;20.20;99.90;;;;;;5065336;28;20040;-78
2023/09/04 09:19:44;;;;;;;24.92;23.15;;;20.20;99.90;;;;;;5023635;28;20049;-79
2023/09/04 09:22:14;;;;;;;25.30;23.80;;;20.00;99.90;;;;;;5061677;28;20041;-78
2023/09/04 09:25:01;;;;;;;25.08;23.38;;;20.30;99.90;;;;;;5060580;28;20630;-78
2023/09/04 09:27:38;;;;;;;24.13;22.60;;;20.30;99.90;;;;;;5040793;28;20048;-80
2023/09/04 09:30:08;;;;;;;24.88;23.23;;;20.50;99.90;;;;;;5042027;28;20051;-80
2023/09/04 09:32:35;;;;;;;24.98;23.30;;;20.80;99.90;;;;;;5050763;28;20145;-80
2023/09/04 09:35:05;;;;;;;24.65;23.25;;;20.70;99.90;;;;;;5061353;28;20052;-81
2023/09/04 09:37:36;;;;;;;25.10;23.60;;;20.80;99.90;;;;;;5057208;28;20036;-82
2023/09/04 09:40:09;;;;;;;25.60;24.10;;;20.70;99.90;;;;;;5021343;28;20040;-78
2023/09/04 09:42:40;;;;;;;25.15;23.70;;;20.80;99.90;;;;;;5020479;28;20049;-81
2023/09/04 09:45:07;;;;;;;26.30;24.80;;;21.30;99.90;;;;;;5053949;28;20340;-80
2023/09/04 09:47:42;;;;;;;25.38;23.80;;;21.50;99.90;;;;;;5047355;28;20066;-79
2023/09/04 09:50:09;;;;;;;26.08;24.55;;;21.50;99.90;;;;;;5046724;28;20044;-80
2023/09/04 09:53:04;;;;;;;26.58;24.63;;;21.50;99.90;;;;;;5053400;28;20047;-80
2023/09/04 09:56:21;;;;;;;26.40;24.90;;;21.30;99.90;;;;;;5033217;28;20045;-77
2023/09/04 09:58:56;;;;;;;26.60;24.95;;;21.30;99.90;;;;;;5052149;28;21487;-78
2023/09/04 10:01:27;;;;;;;26.52;24.95;;;21.40;99.90;;;;;;5053178;28;20056;-79
2023/09/04 10:03:55;;;;;;;25.90;24.20;;;21.40;99.90;;;;;;5032507;28;20476;-80
2023/09/04 10:06:24;;;;;;;25.50;24.00;;;21.60;99.90;;;;;;5052446;28;20450;-78
2023/09/04 10:08:52;;;;;;;26.00;24.40;;;21.60;99.90;;;;;;5063519;28;20052;-79
2023/09/04 10:11:19;;;;;;;26.90;25.30;;;21.70;99.90;;;;;;5049814;28;20490;-79
2023/09/04 10:14:02;;;;;;;26.13;24.02;;;21.70;99.90;;;;;;5052421;28;20079;-81
2023/09/04 10:16:53;;;;;;;27.13;25.52;;;21.80;99.90;;;;;;5049932;28;20044;-78
2023/09/04 10:19:33;;;;;;;26.45;24.85;;;22.20;99.90;;;;;;5048349;28;20606;-78
2023/09/04 10:22:14;;;;;;;26.55;25.05;;;22.60;99.90;;;;;;5075918;28;20135;-81
2023/09/04 10:25:16;;;;;;;26.15;24.65;;;22.70;99.90;;;;;;5061683;28;20063;-77
2023/09/04 10:27:55;;;;;;;25.63;24.13;;;22.80;99.90;;;;;;5058175;28;20045;-78
2023/09/04 10:30:24;;;;;;;26.33;24.60;;;23.00;99.90;;;;;;5057868;28;20049;-83
2023/09/04 10:32:54;;;;;;;27.98;26.13;;;23.20;99.90;;;;;;5056310;28;20045;-81
2023/09/04 10:35:25;;;;;;;26.75;25.08;;;23.00;99.90;;;;;;5038156;28;20075;-80
2023/09/04 10:37:52;;;;;;;26.55;24.75;;;23.00;99.90;;;;;;5041249;28;20057;-80
2023/09/04 10:40:21;;;;;;;26.27;24.73;;;22.80;99.90;;;;;;5048830;28;20113;-79
2023/09/04 10:42:48;;;;;;;25.67;23.88;;;22.80;99.90;;;;;;5052442;28;20052;-80
2023/09/04 10:45:18;;;;;;;25.17;23.50;;;22.60;99.90;;;;;;5049956;28;20055;-80
2023/09/04 10:47:56;;;;;;;25.85;24.13;;;22.60;99.90;;;;;;5047172;28;20103;-80
2023/09/04 10:50:34;;;;;;;26.30;24.63;;;22.60;99.90;;;;;;5035652;28;20044;-80
2023/09/04 10:53:04;;;;;;;25.73;24.13;;;22.80;99.90;;;;;;5054623;28;20068;-79
2023/09/04 10:55:38;;;;;;;26.65;24.85;;;22.90;99.90;;;;;;5058783;28;20049;-81
2023/09/04 10:58:07;;;;;;;25.17;23.48;;;22.80;99.90;;;;;;5058384;28;20127;-80
2023/09/04 11:00:36;;;;;;;23.10;21.45;;;22.70;99.90;;;;;;5038206;28;20740;-81
2023/09/04 11:03:23;;;;;;;25.92;24.23;;;23.10;99.90;;;;;;5038809;28;20029;-78
2023/09/04 11:06:04;;;;;;;25.83;24.05;;;23.40;99.90;;;;;;5044341;28;20052;-77
2023/09/04 11:08:36;;;;;;;27.20;25.40;;;23.10;99.90;;;;;;5048603;28;20052;-79
2023/09/04 11:11:07;;;;;;;26.60;24.70;;;22.90;99.90;;;;;;5034050;28;20051;-80
2023/09/04 11:13:39;;;;;;;26.75;24.73;;;23.00;99.90;;;;;;5025250;28;20051;-78
2023/09/04 11:16:20;;;;;;;25.25;23.63;;;23.10;99.90;;;;;;5048477;28;20059;-78
2023/09/04 11:19:00;;;;;;;26.52;24.63;;;23.20;99.90;;;;;;5029231;28;20057;-80
2023/09/04 11:21:32;;;;;;;26.25;24.50;;;23.20;99.90;;;;;;5036053;28;20048;-79
2023/09/04 11:24:04;;;;;;;27.35;25.48;;;23.40;99.90;;;;;;5047024;28;21889;-79
2023/09/04 11:26:31;;;;;;;26.10;24.35;;;23.30;99.90;;;;;;5042038;28;20451;-78
2023/09/04 11:29:04;;;;;;;26.05;24.42;;;23.40;99.90;;;;;;5029861;28;20059;-79
2023/09/04 11:31:32;;;;;;;26.38;24.67;;;23.40;99.90;;;;;;5058113;28;20329;-78
2023/09/04 11:34:00;;;;;;;27.33;25.42;;;23.70;99.90;;;;;;5048602;28;20129;-80
2023/09/04 11:36:27;;;;;;;25.90;24.27;;;23.40;99.90;;;;;;5037548;28;20303;-80
2023/09/04 11:39:09;;;;;;;26.95;25.25;;;23.70;99.90;;;;;;5056387;28;20050;-77
2023/09/04 11:41:36;;;;;;;26.20;24.50;;;23.50;99.90;;;;;;5048744;28;20041;-78
2023/09/04 11:44:04;;;;;;;26.98;25.20;;;23.20;99.90;;;;;;5042846;28;20040;-77
2023/09/04 11:46:32;;;;;;;26.73;25.02;;;23.60;99.90;;;;;;5041141;28;20167;-77
2023/09/04 11:48:59;;;;;;;27.05;25.20;;;23.90;99.90;;;;;;5044341;28;20041;-76
2023/09/04 11:51:26;;;;;;;26.85;25.20;;;24.00;99.90;;;;;;5042598;28;20056;-77
2023/09/04 11:53:53;;;;;;;28.02;26.20;;;24.20;99.90;;;;;;5040129;28;20101;-78
2023/09/04 11:56:22;;;;;;;27.60;25.42;;;24.30;99.90;;;;;;5036941;28;20041;-77
2023/09/04 11:58:49;;;;;;;26.30;24.52;;;23.70;99.90;;;;;;5030177;28;20056;-79
2023/09/04 12:01:15;;;;;;;26.52;24.65;;;23.30;99.90;;;;;;5051520;28;20040;-76
2023/09/04 12:03:47;;;;;;;25.85;24.25;;;23.30;99.90;;;;;;5044063;28;20384;-77
2023/09/04 12:06:14;;;;;;;27.70;25.92;;;23.80;99.90;;;;;;5037223;28;20041;-78
2023/09/04 12:08:41;;;;;;;27.55;25.65;;;23.90;99.90;;;;;;5028172;28;20101;-79
2023/09/04 12:11:08;;;;;;;27.02;25.25;;;23.90;99.90;;;;;;5043872;28;20049;-78
2023/09/04 12:13:35;;;;;;;28.38;26.48;;;23.70;99.90;;;;;;5028713;28;20604;-78
2023/09/04 12:16:07;;;;;;;28.63;26.70;;;23.90;99.90;;;;;;5025029;28;20737;-78
2023/09/04 12:18:35;;;;;;;27.90;25.98;;;23.80;99.90;;;;;;5031836;28;20053;-79
2023/09/04 12:21:08;;;;;;;28.48;26.65;;;23.70;99.90;;;;;;5026490;28;20879;-77
2023/09/04 12:23:43;;;;;;;28.45;26.65;;;23.50;99.90;;;;;;5037417;28;20061;-76
2023/09/04 12:26:13;;;;;;;28.92;27.02;;;23.50;99.90;;;;;;5040985;28;20060;-76
2023/09/04 12:28:40;;;;;;;28.95;27.00;;;23.70;99.90;;;;;;5049425;28;20131;-77
2023/09/04 12:31:10;;;;;;;28.73;26.80;;;23.70;99.90;;;;;;5039326;28;20059;-77
2023/09/04 12:33:41;;;;;;;29.25;27.25;;;23.80;99.90;;;;;;5034200;28;20152;-76
2023/09/04 12:36:13;;;;;;;29.10;27.13;;;24.00;99.90;;;;;;5040290;28;20056;-78
2023/09/04 12:38:40;;;;;;;29.00;26.90;;;24.10;99.90;;;;;;5018841;28;20049;-77
2023/09/04 12:41:07;;;;;;;29.25;27.48;;;24.20;99.90;;;;;;5026453;28;22225;-75
2023/09/04 12:43:34;;;;;;;29.23;27.42;;;24.30;99.90;;;;;;5044277;28;20109;-75
2023/09/04 12:46:02;;;;;;;29.45;27.65;;;24.40;99.90;;;;;;5008767;28;20040;-77